createdAt,value
2022-12-03T00:01:26.918Z,101521.00
2022-12-03T00:06:34.187Z,101522.97
2022-12-03T00:11:36.111Z,101525.00
2022-12-03T00:16:37.626Z,101519.59
2022-12-03T00:21:39.160Z,101520.22
2022-12-03T00:26:40.663Z,101513.47
2022-12-03T00:31:42.222Z,101511.72
2022-12-03T00:36:43.816Z,101511.72
2022-12-03T00:41:45.350Z,101510.06
2022-12-03T00:46:46.876Z,101504.66
2022-12-03T00:51:48.394Z,101503.00
2022-12-03T00:56:49.899Z,101499.81
2022-12-03T01:01:51.496Z,101499.50
2022-12-03T01:06:53.458Z,101503.50
2022-12-03T01:11:55.072Z,101495.47
2022-12-03T01:16:56.568Z,101504.81
2022-12-03T01:21:58.085Z,101497.97
2022-12-03T01:26:59.674Z,101513.41
2022-12-03T01:32:02.227Z,101508.44
2022-12-03T01:37:03.982Z,101510.31
2022-12-03T01:42:08.059Z,101514.44
2022-12-03T01:47:22.331Z,101510.59
2022-12-03T01:52:28.764Z,101513.41
2022-12-03T01:57:39.642Z,101512.34
2022-12-03T02:02:42.764Z,101506.56
2022-12-03T02:07:45.256Z,101510.72
2022-12-03T02:12:50.639Z,101508.81
2022-12-03T02:17:52.894Z,101496.66
2022-12-03T02:23:00.481Z,101499.72
2022-12-03T02:28:03.595Z,101508.06
2022-12-03T02:33:05.279Z,101494.19
2022-12-03T02:38:35.013Z,101496.31
2022-12-03T02:43:37.057Z,101487.16
2022-12-03T02:48:41.128Z,101486.34
2022-12-03T02:53:47.234Z,101486.09
2022-12-03T02:58:53.040Z,101486.69
2022-12-03T03:03:54.922Z,101484.69
2022-12-03T03:08:57.528Z,101487.63
2022-12-03T03:14:01.967Z,101475.97
2022-12-03T03:19:03.913Z,101473.72
2022-12-03T03:24:05.670Z,101469.13
2022-12-03T03:29:07.440Z,101471.72
2022-12-03T03:34:10.517Z,101468.41
2022-12-03T03:39:13.136Z,101462.06
2022-12-03T03:44:14.657Z,101463.84
2022-12-03T03:49:16.415Z,101464.88
2022-12-03T03:54:19.112Z,101464.16
2022-12-03T03:59:21.617Z,101472.41
2022-12-03T04:04:26.132Z,101462.19
2022-12-03T04:09:27.776Z,101465.56
2022-12-03T04:14:29.354Z,101462.78
2022-12-03T04:19:30.847Z,101460.53
2022-12-03T04:24:32.674Z,101462.88
2022-12-03T04:29:34.561Z,101461.00
2022-12-03T04:34:36.235Z,101457.81
2022-12-03T04:39:37.970Z,101450.41
2022-12-03T04:44:39.512Z,101450.63
2022-12-03T04:49:46.812Z,101444.03
2022-12-03T04:54:48.322Z,101440.59
2022-12-03T04:59:49.844Z,101448.69
2022-12-03T05:04:51.593Z,101451.97
2022-12-03T05:09:53.220Z,101441.72
2022-12-03T05:14:54.980Z,101433.34
2022-12-03T05:19:56.786Z,101442.78
2022-12-03T05:24:58.276Z,101437.38
2022-12-03T05:29:59.917Z,101435.47
2022-12-03T05:35:01.463Z,101432.09
2022-12-03T05:40:03.663Z,101431.28
2022-12-03T05:45:05.778Z,101436.47
2022-12-03T05:50:07.898Z,101432.69
2022-12-03T05:55:10.520Z,101434.47
2022-12-03T06:00:17.756Z,101430.22
2022-12-03T06:05:20.226Z,101433.28
2022-12-03T06:10:24.180Z,101420.19
2022-12-03T06:15:25.699Z,101428.56
2022-12-03T06:20:27.182Z,101425.03
2022-12-03T06:25:28.690Z,101422.69
2022-12-03T06:30:30.205Z,101424.91
2022-12-03T06:35:32.511Z,101425.16
2022-12-03T06:40:33.978Z,101428.22
2022-12-03T06:45:35.491Z,101425.50
2022-12-03T06:50:37.061Z,101430.22
2022-12-03T06:55:38.578Z,101418.53
2022-12-03T07:00:40.109Z,101420.44
2022-12-03T07:05:56.774Z,101421.50
2022-12-03T07:10:58.664Z,101430.56
2022-12-03T07:16:00.255Z,101437.88
2022-12-03T07:21:01.859Z,101426.38
2022-12-03T07:26:03.392Z,101421.53
2022-12-03T07:31:05.067Z,101425.44
2022-12-03T07:36:06.951Z,101424.72
2022-12-03T07:41:08.508Z,101419.53
2022-12-03T07:46:10.157Z,101424.97
2022-12-03T07:51:15.201Z,101428.63
2022-12-03T07:56:17.215Z,101429.56
2022-12-03T08:01:18.879Z,101422.03
2022-12-03T08:06:20.415Z,101428.28
2022-12-03T08:11:21.897Z,101429.47
2022-12-03T08:16:23.517Z,101430.63
2022-12-03T08:21:34.398Z,101432.25
2022-12-03T08:26:36.039Z,101434.03
2022-12-03T08:31:38.025Z,101440.38
2022-12-03T08:36:39.541Z,101434.50
2022-12-03T08:41:41.088Z,101433.31
2022-12-03T08:46:42.616Z,101446.53
2022-12-03T08:51:44.322Z,101439.09
2022-12-03T08:56:45.881Z,101439.34
2022-12-03T09:01:48.801Z,101434.38
2022-12-03T09:06:51.640Z,101437.22
2022-12-03T09:11:54.117Z,101431.66
2022-12-03T09:16:56.475Z,101433.31
2022-12-03T09:21:58.291Z,101427.28
2022-12-03T09:26:59.865Z,101441.69
2022-12-03T09:32:01.625Z,101435.69
2022-12-03T09:37:03.209Z,101432.38
2022-12-03T09:42:05.171Z,101428.50
2022-12-03T09:47:07.975Z,101419.88
2022-12-03T09:52:18.104Z,101419.06
2022-12-03T09:57:19.744Z,101407.22
2022-12-03T10:02:26.908Z,101413.97
2022-12-03T10:07:28.568Z,101393.94
2022-12-03T10:12:30.270Z,101403.00
2022-12-03T10:17:32.412Z,101394.63
2022-12-03T10:22:33.956Z,101393.06
2022-12-03T10:27:35.785Z,101391.69
2022-12-03T10:32:44.178Z,101377.41
2022-12-03T10:37:59.611Z,101375.34
2022-12-03T10:43:21.133Z,101366.34
2022-12-03T10:48:25.261Z,101359.28
2022-12-03T10:53:29.436Z,101354.63
2022-12-03T10:58:35.800Z,101347.34
2022-12-03T11:03:37.369Z,101343.19
2022-12-03T11:08:43.368Z,101334.91
2022-12-03T11:13:46.400Z,101332.09
2022-12-03T11:18:50.725Z,101339.38
2022-12-03T11:23:52.388Z,101337.59
2022-12-03T11:28:55.844Z,101321.84
2022-12-03T11:34:16.625Z,101327.13
2022-12-03T11:39:50.147Z,101312.47
2022-12-03T11:45:04.152Z,101305.44
2022-12-03T11:50:17.898Z,101305.06
2022-12-03T11:55:28.328Z,101300.38
2022-12-03T12:00:29.883Z,101292.59
2022-12-03T12:05:33.588Z,101299.03
2022-12-03T12:10:49.029Z,101286.91
2022-12-03T12:15:50.709Z,101287.47
2022-12-03T12:20:52.372Z,101284.19
2022-12-03T12:26:06.004Z,101276.13
2022-12-03T12:31:11.228Z,101266.38
2022-12-03T12:36:12.796Z,101259.94
2022-12-03T12:41:14.301Z,101251.38
2022-12-03T12:51:45.161Z,101242.41
2022-12-03T12:56:49.380Z,101249.81
2022-12-03T13:01:51.047Z,101249.06
2022-12-03T13:06:54.411Z,101248.66
2022-12-03T13:11:58.386Z,101240.88
2022-12-03T13:17:01.751Z,101235.25
2022-12-03T13:22:29.796Z,101224.13
2022-12-03T13:27:31.309Z,101224.06
2022-12-03T13:32:36.655Z,101221.78
2022-12-03T13:37:38.838Z,101213.16
2022-12-03T13:42:40.370Z,101207.56
2022-12-03T13:47:53.621Z,101210.34
2022-12-03T13:52:55.485Z,101211.56
2022-12-03T13:57:57.591Z,101207.22
2022-12-03T14:02:59.764Z,101201.09
2022-12-03T14:08:01.479Z,101204.19
2022-12-03T14:13:03.147Z,101207.81
2022-12-03T14:18:04.665Z,101203.84
2022-12-03T14:23:06.278Z,101192.63
2022-12-03T14:28:07.891Z,101197.81
2022-12-03T14:33:09.398Z,101196.88
2022-12-03T14:38:10.932Z,101189.66
2022-12-03T14:43:12.493Z,101189.22
2022-12-03T14:48:14.058Z,101189.16
2022-12-03T14:53:15.543Z,101198.69
2022-12-03T14:58:17.080Z,101194.94
2022-12-03T15:03:18.904Z,101192.81
2022-12-03T15:08:20.554Z,101186.56
2022-12-03T15:13:22.428Z,101187.13
2022-12-03T15:18:23.942Z,101184.53
2022-12-03T15:23:25.520Z,101188.59
2022-12-03T15:28:27.029Z,101194.94
2022-12-03T15:33:28.629Z,101192.94
2022-12-03T15:38:30.124Z,101183.13
2022-12-03T15:43:31.657Z,101183.63
2022-12-03T15:48:33.213Z,101190.41
2022-12-03T15:53:34.921Z,101183.19
2022-12-03T15:58:36.431Z,101187.16
2022-12-03T16:03:37.967Z,101193.69
2022-12-03T16:08:39.477Z,101192.34
2022-12-03T16:13:40.965Z,101195.22
2022-12-03T16:18:42.595Z,101183.75
2022-12-03T16:23:44.166Z,101187.94
2022-12-03T16:28:45.836Z,101193.00
2022-12-03T16:33:47.748Z,101196.16
2022-12-03T16:38:49.368Z,101195.03
2022-12-03T16:43:50.883Z,101202.47
2022-12-03T16:48:53.802Z,101189.38
2022-12-03T16:53:55.326Z,101191.25
2022-12-03T16:58:56.850Z,101186.44
2022-12-03T17:03:58.403Z,101182.38
2022-12-03T17:09:00.239Z,101180.31
2022-12-03T17:14:01.760Z,101171.75
2022-12-03T17:19:03.403Z,101177.81
2022-12-03T17:24:05.067Z,101173.34
2022-12-03T17:29:06.575Z,101175.56
2022-12-03T17:34:08.207Z,101171.81
2022-12-03T17:39:09.843Z,101161.19
2022-12-03T17:44:16.304Z,101160.75
2022-12-03T17:49:20.846Z,101159.72
2022-12-03T17:54:22.404Z,101152.34
2022-12-03T17:59:23.991Z,101156.97
2022-12-03T18:04:29.191Z,101157.91
2022-12-03T18:09:30.831Z,101155.75
2022-12-03T18:14:32.309Z,101154.94
2022-12-03T18:19:33.880Z,101150.75
2022-12-03T18:24:35.477Z,101145.47
2022-12-03T18:29:37.066Z,101141.66
2022-12-03T18:34:38.612Z,101140.94
2022-12-03T18:39:42.779Z,101135.91
2022-12-03T18:44:49.640Z,101133.56
2022-12-03T18:49:51.831Z,101129.56
2022-12-03T18:54:53.527Z,101122.22
2022-12-03T18:59:55.426Z,101120.72
2022-12-03T19:04:57.160Z,101120.16
2022-12-03T19:09:58.750Z,101125.25
2022-12-03T19:15:00.838Z,101126.88
2022-12-03T19:20:02.361Z,101131.53
2022-12-03T19:25:04.473Z,101137.41
2022-12-03T19:30:06.611Z,101139.28
2022-12-03T19:35:08.772Z,101137.34
2022-12-03T19:40:10.645Z,101133.81
2022-12-03T19:45:12.259Z,101134.66
2022-12-03T19:50:17.947Z,101139.38
2022-12-03T19:55:22.612Z,101134.06
2022-12-03T20:00:24.172Z,101127.03
2022-12-03T20:05:31.791Z,101138.94
2022-12-03T20:10:34.986Z,101127.47
2022-12-03T20:15:36.903Z,101134.69
2022-12-03T20:20:39.467Z,101127.19
2022-12-03T20:25:41.003Z,101127.53
2022-12-03T20:30:42.673Z,101126.75
2022-12-03T20:35:44.683Z,101122.38
2022-12-03T20:40:46.290Z,101130.00
2022-12-03T20:45:47.850Z,101122.13
2022-12-03T20:50:49.414Z,101110.91
2022-12-03T20:55:59.917Z,101122.50
2022-12-03T21:01:16.505Z,101123.88
2022-12-03T21:06:18.422Z,101109.84
2022-12-03T21:11:22.776Z,101107.53
2022-12-03T21:16:51.929Z,101105.75
2022-12-03T21:21:49.178Z,101104.00
2022-12-03T21:26:50.756Z,101111.84
2022-12-03T21:31:52.798Z,101099.19
2022-12-03T21:36:54.303Z,101105.53
2022-12-03T21:42:22.260Z,101110.16
2022-12-03T21:47:18.310Z,101100.34
2022-12-03T21:52:20.191Z,101109.19
2022-12-03T21:57:21.707Z,101108.06
2022-12-03T22:02:23.374Z,101102.28
2022-12-03T22:07:25.329Z,101102.84
2022-12-03T22:12:27.263Z,101095.06
2022-12-03T22:17:28.783Z,101091.91
2022-12-03T22:22:30.421Z,101101.75
2022-12-03T22:27:31.999Z,101091.13
2022-12-03T22:32:33.716Z,101087.88
2022-12-03T22:37:35.542Z,101085.44
2022-12-03T22:42:37.165Z,101087.47
2022-12-03T22:47:38.654Z,101081.78
2022-12-03T22:52:40.175Z,101070.97
2022-12-03T22:57:42.176Z,101059.75
2022-12-03T23:02:44.392Z,101058.47
2022-12-03T23:07:45.944Z,101057.09
2022-12-03T23:12:47.568Z,101053.41
2022-12-03T23:17:49.109Z,101045.22
2022-12-03T23:22:51.571Z,101047.03
2022-12-03T23:27:53.228Z,101056.06
2022-12-03T23:32:54.770Z,101053.28
2022-12-03T23:37:56.581Z,101061.94
2022-12-03T23:42:59.009Z,101051.50
2022-12-03T23:48:01.293Z,101051.63
2022-12-03T23:53:03.136Z,101057.06
2022-12-03T23:58:04.839Z,101051.56
